Time;durP1;ratioP1;P1;durP2;ratioP2;P2;SDS_P1;SDS_P2;PMS_P1;PMS_P2;Temp;Humidity;BMP_temperature;BMP_pressure;BME280_temperature;BME280_humidity;BME280_pressure;Samples;Min_cycle;Max_cycle;Signal;HPM_P1;HPM_P2
2023/07/01 00:02:02;;;;;;;7.80;6.05;;;;;;;18.56;59.96;94660.53;5150923;27;20041;-81
2023/07/01 00:04:27;;;;;;;7.25;6.03;;;;;;;18.51;60.03;94662.00;5151647;27;20030;-81
2023/07/01 00:06:53;;;;;;;7.85;6.28;;;;;;;18.48;59.98;94654.66;5150569;27;20530;-81
2023/07/01 00:09:19;;;;;;;10.00;7.57;;;;;;;18.47;60.15;94647.59;5150336;27;20105;-80
2023/07/01 00:11:44;;;;;;;9.05;6.55;;;;;;;18.46;59.99;94650.84;5152005;27;20465;-80
2023/07/01 00:14:10;;;;;;;11.73;6.63;;;;;;;18.44;60.00;94656.91;5150223;27;20431;-81
2023/07/01 00:16:35;;;;;;;10.55;7.05;;;;;;;18.40;59.73;94648.03;5151553;27;20019;-81
2023/07/01 00:19:00;;;;;;;8.25;6.22;;;;;;;18.41;59.90;94651.56;5152081;27;20029;-81
2023/07/01 00:21:26;;;;;;;11.52;5.90;;;;;;;18.35;59.59;94653.53;5151046;27;20031;-82
2023/07/01 00:23:51;;;;;;;7.53;6.45;;;;;;;18.33;59.97;94653.28;5151823;27;20030;-80
2023/07/01 00:26:16;;;;;;;7.35;6.00;;;;;;;18.35;59.64;94662.69;5151292;27;20019;-81
2023/07/01 00:28:42;;;;;;;6.78;5.60;;;;;;;18.31;60.27;94651.75;5151703;27;20031;-81
2023/07/01 00:31:07;;;;;;;9.07;5.97;;;;;;;18.28;60.36;94649.19;5151338;27;20109;-81
2023/07/01 00:33:33;;;;;;;9.77;6.25;;;;;;;18.25;60.56;94653.75;5151626;27;20038;-81
2023/07/01 00:35:58;;;;;;;7.82;6.72;;;;;;;18.23;60.65;94653.44;5150289;27;20106;-82
2023/07/01 00:38:23;;;;;;;8.13;6.68;;;;;;;18.21;60.77;94658.00;5151172;27;20416;-81
2023/07/01 00:40:49;;;;;;;8.10;6.03;;;;;;;18.19;60.76;94650.16;5151576;27;20023;-81
2023/07/01 00:43:14;;;;;;;9.25;6.57;;;;;;;18.15;60.90;94646.06;5149233;27;20027;-81
2023/07/01 00:45:40;;;;;;;6.60;5.80;;;;;;;18.15;60.81;94644.03;5151441;27;20026;-81
2023/07/01 00:48:05;;;;;;;7.97;5.85;;;;;;;18.14;61.33;94641.75;5149946;27;20243;-81
2023/07/01 00:50:31;;;;;;;6.72;6.07;;;;;;;18.11;61.06;94637.19;5151050;27;20105;-80
2023/07/01 00:52:56;;;;;;;6.53;5.93;;;;;;;18.12;61.29;94639.47;5149234;27;20026;-81
2023/07/01 00:55:21;;;;;;;6.63;6.03;;;;;;;18.04;61.41;94635.59;5150440;27;20023;-81
2023/07/01 00:57:47;;;;;;;6.20;5.60;;;;;;;18.02;61.16;94646.47;5150103;27;20038;-82
2023/07/01 01:00:13;;;;;;;5.78;5.28;;;;;;;18.03;60.92;94645.22;5150787;27;20019;-80
2023/07/01 01:02:56;;;;;;;6.47;5.43;;;;;;;17.99;61.34;94647.44;5149761;27;20047;-81
2023/07/01 01:05:34;;;;;;;5.90;5.40;;;;;;;17.98;61.31;94652.25;5149477;27;20026;-81
2023/07/01 01:08:08;;;;;;;6.38;5.78;;;;;;;17.95;61.12;94646.91;5149435;27;20022;-82
2023/07/01 01:10:35;;;;;;;5.47;4.97;;;;;;;17.97;61.18;94649.97;5149766;27;20049;-81
2023/07/01 01:13:03;;;;;;;5.72;5.20;;;;;;;17.92;60.89;94645.13;5149442;27;20027;-82
2023/07/01 01:15:28;;;;;;;5.30;4.80;;;;;;;17.90;61.03;94639.28;5149639;27;20126;-81
2023/07/01 01:17:56;;;;;;;8.07;5.18;;;;;;;17.91;60.92;94646.38;5149208;27;20019;-81
2023/07/01 01:20:22;;;;;;;5.13;4.63;;;;;;;17.89;61.02;94640.53;5150780;27;20030;-81
2023/07/01 01:23:23;;;;;;;5.43;4.85;;;;;;;17.88;60.67;94639.75;5150283;27;20038;-80
2023/07/01 01:25:51;;;;;;;5.35;4.85;;;;;;;17.86;60.72;94641.53;5150381;27;20384;-82
2023/07/01 01:28:17;;;;;;;6.10;5.55;;;;;;;17.81;60.91;94633.88;5150804;27;20054;-81
2023/07/01 01:30:42;;;;;;;6.90;5.00;;;;;;;17.78;61.26;94646.75;5148856;27;20522;-81
2023/07/01 01:33:08;;;;;;;6.32;4.78;;;;;;;17.76;61.21;94640.91;5149061;27;20076;-80
2023/07/01 01:35:33;;;;;;;5.25;4.75;;;;;;;17.76;61.23;94632.56;5150267;27;20034;-81
2023/07/01 01:38:02;;;;;;;6.40;5.20;;;;;;;17.75;61.63;94634.59;5149846;27;20019;-81
2023/07/01 01:40:36;;;;;;;5.88;4.70;;;;;;;17.76;61.30;94636.13;5149782;27;20035;-81
2023/07/01 01:43:37;;;;;;;5.50;5.00;;;;;;;17.72;61.46;94630.03;5148612;27;20033;-81
2023/07/01 01:46:03;;;;;;;6.80;4.97;;;;;;;17.72;61.62;94632.03;5150184;27;20046;-81
2023/07/01 01:48:29;;;;;;;8.32;5.32;;;;;;;17.69;61.34;94625.41;5148224;27;20535;-80
2023/07/01 01:50:55;;;;;;;6.72;5.38;;;;;;;17.68;61.62;94618.34;5148605;27;20408;-81
2023/07/01 01:53:21;;;;;;;6.70;5.32;;;;;;;17.65;61.64;94627.63;5147778;27;20014;-82
2023/07/01 01:55:47;;;;;;;7.65;6.05;;;;;;;17.61;61.67;94621.56;5148619;27;20472;-80
2023/07/01 01:58:13;;;;;;;5.65;5.15;;;;;;;17.61;61.80;94624.34;5149597;27;20031;-80
2023/07/01 02:00:38;;;;;;;5.93;5.32;;;;;;;17.61;61.82;94623.56;5148330;27;20026;-81
2023/07/01 02:03:03;;;;;;;5.53;4.90;;;;;;;17.61;61.57;94632.69;5149649;27;20043;-82
2023/07/01 02:05:29;;;;;;;6.32;5.43;;;;;;;17.57;61.94;94626.56;5147937;27;20488;-81
2023/07/01 02:07:55;;;;;;;6.55;5.07;;;;;;;17.56;61.85;94619.47;5149578;27;20085;-81
2023/07/01 02:10:20;;;;;;;6.28;5.68;;;;;;;17.59;62.05;94626.06;5147882;27;20421;-82
2023/07/01 02:12:46;;;;;;;5.88;5.28;;;;;;;17.52;61.82;94630.81;5149354;27;20027;-81
2023/07/01 02:15:11;;;;;;;6.85;5.50;;;;;;;17.50;62.00;94630.53;5148902;27;20022;-81
2023/07/01 02:17:37;;;;;;;7.35;5.65;;;;;;;17.48;61.72;94627.47;5148696;27;20025;-80
2023/07/01 02:20:04;;;;;;;5.72;5.22;;;;;;;17.46;61.62;94635.53;5149025;27;20026;-80
2023/07/01 02:22:29;;;;;;;5.80;5.28;;;;;;;17.42;61.64;94634.97;5148746;27;20042;-81
2023/07/01 02:24:55;;;;;;;5.13;4.72;;;;;;;17.43;61.19;94632.97;5149493;27;20027;-80
2023/07/01 02:27:21;;;;;;;6.57;4.60;;;;;;;17.37;61.68;94630.13;5148750;27;20083;-81
2023/07/01 02:29:47;;;;;;;5.35;4.88;;;;;;;17.34;61.54;94627.59;5149371;27;20069;-81
2023/07/01 02:32:13;;;;;;;5.80;5.25;;;;;;;17.30;61.60;94624.25;5148591;27;20481;-81
2023/07/01 02:34:39;;;;;;;5.40;4.90;;;;;;;17.28;61.75;94623.97;5149205;27;20022;-81
2023/07/01 02:37:04;;;;;;;6.07;5.13;;;;;;;17.26;61.67;94627.22;5147606;27;20058;-82
2023/07/01 02:39:29;;;;;;;7.07;4.80;;;;;;;17.22;61.89;94635.78;5148562;27;20011;-81
2023/07/01 02:41:55;;;;;;;5.80;5.15;;;;;;;17.21;61.93;94645.38;5149096;27;20018;-82
2023/07/01 02:44:20;;;;;;;8.15;5.15;;;;;;;17.17;61.92;94639.25;5148231;27;20465;-82
2023/07/01 02:46:46;;;;;;;6.72;4.97;;;;;;;17.15;61.84;94641.00;5147699;27;20019;-81
2023/07/01 02:49:12;;;;;;;6.90;4.97;;;;;;;17.14;61.98;94645.00;5146863;27;20079;-81
2023/07/01 02:51:37;;;;;;;6.10;4.93;;;;;;;17.09;62.04;94637.38;5148651;27;20019;-82
2023/07/01 02:54:02;;;;;;;5.57;4.68;;;;;;;17.12;61.82;94642.72;5147304;27;20098;-81
2023/07/01 02:56:28;;;;;;;6.72;5.18;;;;;;;17.10;62.21;94644.47;5129738;27;20134;-81
2023/07/01 02:58:53;;;;;;;5.88;5.38;;;;;;;17.11;62.38;94644.00;5148881;27;20022;-81
2023/07/01 03:01:18;;;;;;;6.75;5.00;;;;;;;17.10;62.59;94652.81;5148313;27;20054;-82
2023/07/01 03:03:49;;;;;;;5.90;5.28;;;;;;;17.07;62.52;94657.31;5147660;27;20043;-80
2023/07/01 03:06:16;;;;;;;5.88;5.28;;;;;;;17.07;62.33;94653.78;5148332;27;20510;-81
2023/07/01 03:08:41;;;;;;;7.90;5.95;;;;;;;17.05;62.42;94656.28;5147685;27;20061;-81
2023/07/01 03:11:06;;;;;;;9.35;6.15;;;;;;;17.05;62.58;94648.72;5149089;27;20042;-79
2023/07/01 03:13:32;;;;;;;9.20;5.65;;;;;;;17.07;62.70;94654.53;5148723;27;20480;-81
2023/07/01 03:15:58;;;;;;;7.28;5.28;;;;;;;17.08;62.86;94647.72;5148217;27;20023;-81
2023/07/01 03:18:23;;;;;;;6.50;5.80;;;;;;;17.09;62.78;94649.28;5148586;27;20030;-82
2023/07/01 03:20:51;;;;;;;11.25;6.30;;;;;;;17.10;62.49;94653.56;5148925;27;20106;-82
2023/07/01 03:23:17;;;;;;;9.00;5.55;;;;;;;17.07;62.86;94654.53;5148190;27;20041;-81
2023/07/01 03:25:42;;;;;;;7.43;6.20;;;;;;;17.16;62.66;94654.41;5148756;27;20019;-81
2023/07/01 03:28:08;;;;;;;6.93;6.18;;;;;;;17.14;62.23;94645.00;5148905;27;20043;-81
2023/07/01 03:30:34;;;;;;;8.25;6.18;;;;;;;17.12;62.45;94645.50;5151124;27;20548;-82
2023/07/01 03:32:59;;;;;;;6.88;6.15;;;;;;;17.14;62.16;94643.00;5133832;27;20026;-82
2023/07/01 03:35:25;;;;;;;7.00;5.97;;;;;;;17.14;62.27;94640.22;5150872;27;20078;-81
2023/07/01 03:37:50;;;;;;;10.70;6.90;;;;;;;17.10;62.60;94652.81;5152639;27;20130;-81
2023/07/01 03:40:16;;;;;;;7.20;6.07;;;;;;;17.11;62.60;94646.75;5150865;27;20095;-82
2023/07/01 03:42:42;;;;;;;8.48;6.75;;;;;;;17.09;62.58;94648.47;5152011;27;20480;-82
2023/07/01 03:45:10;;;;;;;7.97;6.30;;;;;;;17.12;62.59;94656.63;5152194;27;20037;-81
2023/07/01 03:47:36;;;;;;;7.75;6.50;;;;;;;17.13;62.70;94646.28;5150756;27;20458;-81
2023/07/01 03:50:02;;;;;;;10.00;7.05;;;;;;;17.14;62.46;94648.56;5150878;27;20545;-81
2023/07/01 03:52:27;;;;;;;10.52;6.85;;;;;;;17.13;62.28;94649.81;5151877;27;20026;-81
2023/07/01 03:54:53;;;;;;;7.22;6.50;;;;;;;17.15;62.55;94647.31;5152009;27;20019;-82
2023/07/01 03:57:18;;;;;;;8.48;6.85;;;;;;;17.19;62.10;94653.41;5151885;27;20350;-82
2023/07/01 03:59:43;;;;;;;9.23;7.00;;;;;;;17.22;62.00;94660.03;5133544;27;20046;-82
2023/07/01 04:02:10;;;;;;;10.30;6.93;;;;;;;17.23;62.19;94656.00;5151495;27;20497;-82
2023/07/01 04:04:36;;;;;;;12.98;8.70;;;;;;;17.25;62.02;94645.91;5151813;27;20030;-82
2023/07/01 04:07:01;;;;;;;9.95;7.55;;;;;;;17.29;61.81;94650.50;5151904;27;20118;-82
2023/07/01 04:09:26;;;;;;;10.57;7.63;;;;;;;17.29;61.94;94653.28;5132705;27;20018;-82
2023/07/01 04:11:52;;;;;;;9.20;7.22;;;;;;;17.32;61.83;94655.84;5151765;27;20026;-82
2023/07/01 04:14:17;;;;;;;9.68;6.43;;;;;;;17.34;61.80;94652.59;5151411;27;20621;-82
2023/07/01 04:16:44;;;;;;;7.88;6.75;;;;;;;17.39;62.02;94647.09;5151706;27;20022;-83
2023/07/01 04:19:10;;;;;;;8.57;6.93;;;;;;;17.44;62.28;94654.72;5150293;27;20022;-81
2023/07/01 04:21:35;;;;;;;8.05;6.68;;;;;;;17.43;61.91;94650.44;5151842;27;20018;-81
2023/07/01 04:24:04;;;;;;;9.85;7.32;;;;;;;17.48;61.96;94652.47;5150149;27;20385;-81
2023/07/01 04:26:32;;;;;;;9.45;8.40;;;;;;;17.50;61.95;94646.44;5151556;27;20018;-81
2023/07/01 04:28:57;;;;;;;14.15;7.68;;;;;;;17.57;61.77;94648.03;5151260;27;20106;-81
2023/07/01 04:31:23;;;;;;;11.25;6.90;;;;;;;17.60;61.82;94650.56;5151654;27;20102;-81
2023/07/01 04:33:49;;;;;;;8.07;6.57;;;;;;;17.65;61.98;94635.22;5149865;27;20034;-81
2023/07/01 04:36:14;;;;;;;7.88;7.07;;;;;;;17.69;61.79;94647.66;5150083;27;20019;-82
2023/07/01 04:38:40;;;;;;;9.88;6.88;;;;;;;17.73;61.55;94639.13;5150438;27;20011;-81
2023/07/01 04:41:05;;;;;;;9.05;7.50;;;;;;;17.77;61.39;94634.09;5149398;27;20056;-81
2023/07/01 04:43:31;;;;;;;7.35;6.65;;;;;;;17.81;61.53;94640.22;5151358;27;20054;-82
2023/07/01 04:45:57;;;;;;;7.43;6.60;;;;;;;17.83;61.53;94642.50;5149909;27;20038;-82
2023/07/01 04:48:22;;;;;;;9.82;7.47;;;;;;;17.91;61.30;94643.59;5151042;27;20023;-82
2023/07/01 04:50:48;;;;;;;11.10;7.75;;;;;;;17.92;61.30;94642.34;5151803;27;20079;-82
2023/07/01 04:53:13;;;;;;;9.07;8.02;;;;;;;18.01;61.31;94647.72;5149387;27;20057;-81
2023/07/01 04:55:38;;;;;;;9.57;7.97;;;;;;;18.01;61.14;94647.72;5150967;27;20070;-82
2023/07/01 04:58:04;;;;;;;9.10;8.20;;;;;;;18.05;61.00;94640.66;5150955;27;20432;-82
2023/07/01 05:00:29;;;;;;;10.30;8.32;;;;;;;18.08;60.41;94657.66;5150739;27;20030;-82
2023/07/01 05:02:55;;;;;;;10.18;8.45;;;;;;;18.16;60.89;94672.63;5150502;27;20187;-82
2023/07/01 05:05:20;;;;;;;9.57;7.35;;;;;;;18.19;60.98;94669.63;5150761;27;20038;-83
2023/07/01 05:07:46;;;;;;;8.93;8.13;;;;;;;18.27;60.34;94659.56;5150624;27;20038;-83
2023/07/01 05:10:11;;;;;;;10.88;8.45;;;;;;;18.35;59.94;94668.25;5149321;27;20024;-82
2023/07/01 05:12:37;;;;;;;9.05;8.15;;;;;;;18.34;60.21;94660.38;5149142;27;20030;-81
2023/07/01 05:15:02;;;;;;;13.25;8.60;;;;;;;18.34;59.75;94661.13;5150740;27;20025;-81
2023/07/01 05:17:28;;;;;;;8.73;7.90;;;;;;;18.43;60.27;94663.75;5151473;27;20030;-82
2023/07/01 05:19:53;;;;;;;9.68;8.35;;;;;;;18.45;59.93;94660.44;5150334;27;20023;-83
2023/07/01 05:22:19;;;;;;;10.50;8.90;;;;;;;18.50;60.06;94671.63;5149251;27;20083;-83
2023/07/01 05:24:44;;;;;;;11.60;9.05;;;;;;;18.57;59.50;94671.16;5148759;27;20102;-84
2023/07/01 05:27:10;;;;;;;11.40;9.10;;;;;;;18.63;59.05;94671.19;5132154;27;20019;-82
2023/07/01 05:29:35;;;;;;;11.00;9.07;;;;;;;18.68;58.97;94676.06;5148901;27;20272;-82
2023/07/01 05:32:00;;;;;;;10.60;9.48;;;;;;;18.71;58.72;94677.13;5148980;27;20397;-82
2023/07/01 05:34:26;;;;;;;10.55;9.45;;;;;;;18.72;58.52;94675.84;5149852;27;20046;-82
2023/07/01 05:36:51;;;;;;;12.60;9.85;;;;;;;18.75;58.37;94663.72;5149561;27;20588;-81
2023/07/01 05:39:17;;;;;;;12.80;9.70;;;;;;;18.77;58.31;94664.75;5149922;27;20046;-82
2023/07/01 05:41:43;;;;;;;11.70;9.70;;;;;;;18.83;57.67;94671.13;5149988;27;20055;-82
2023/07/01 05:44:10;;;;;;;13.85;9.80;;;;;;;18.87;58.45;94668.13;5150258;27;20030;-82
2023/07/01 05:46:35;;;;;;;10.23;8.63;;;;;;;18.93;57.83;94674.47;5149519;27;20450;-82
2023/07/01 05:49:01;;;;;;;12.80;7.88;;;;;;;18.97;57.81;94658.28;5149778;27;20027;-82
2023/07/01 05:51:26;;;;;;;9.82;8.25;;;;;;;19.01;57.51;94664.38;5148404;27;20022;-82
2023/07/01 05:53:52;;;;;;;9.18;7.97;;;;;;;19.08;57.71;94668.72;5148512;27;20023;-82
2023/07/01 05:56:17;;;;;;;9.48;8.45;;;;;;;19.17;57.45;94665.72;5148270;27;20049;-82
2023/07/01 05:58:43;;;;;;;10.52;8.63;;;;;;;19.21;57.06;94671.84;5149458;27;20045;-82
2023/07/01 06:01:08;;;;;;;9.57;8.57;;;;;;;19.25;56.96;94677.91;5149834;27;20014;-82
2023/07/01 06:03:34;;;;;;;11.43;8.50;;;;;;;19.37;56.87;94685.03;5149090;27;20057;-81
2023/07/01 06:05:59;;;;;;;11.32;8.63;;;;;;;19.42;56.13;94685.56;5149465;27;20029;-83
2023/07/01 06:08:25;;;;;;;9.23;8.25;;;;;;;19.47;55.77;94682.06;5150153;27;20034;-81
2023/07/01 06:10:50;;;;;;;10.05;8.00;;;;;;;19.54;55.36;94676.75;5149231;27;20063;-81
2023/07/01 06:13:16;;;;;;;8.35;7.50;;;;;;;19.58;54.74;94676.50;5149410;27;20053;-82
2023/07/01 06:15:41;;;;;;;12.05;7.97;;;;;;;19.65;55.16;94676.06;5148695;27;20113;-81
2023/07/01 06:18:07;;;;;;;9.38;7.72;;;;;;;19.71;55.54;94676.06;5149988;27;20023;-81
2023/07/01 06:20:32;;;;;;;8.95;8.10;;;;;;;19.76;55.27;94669.75;5149093;27;20580;-81
2023/07/01 06:22:57;;;;;;;9.65;7.88;;;;;;;19.82;55.07;94667.72;5149006;27;20022;-81
2023/07/01 06:25:23;;;;;;;9.65;8.13;;;;;;;19.86;55.29;94671.81;5147884;27;20014;-81
2023/07/01 06:27:48;;;;;;;10.85;8.02;;;;;;;19.96;55.55;94668.78;5149486;27;20026;-80
2023/07/01 06:30:14;;;;;;;8.93;8.02;;;;;;;19.94;55.31;94658.09;5147771;27;20026;-80
2023/07/01 06:32:39;;;;;;;10.88;8.18;;;;;;;20.13;54.91;94667.53;5147597;27;20109;-81
2023/07/01 06:35:05;;;;;;;9.65;6.85;;;;;;;20.18;53.71;94671.56;5149374;27;20037;-80
2023/07/01 06:37:30;;;;;;;11.50;7.88;;;;;;;20.23;53.52;94662.44;5149533;27;20029;-82
2023/07/01 06:39:55;;;;;;;8.38;7.53;;;;;;;20.33;53.42;94672.09;5149559;27;20030;-81
2023/07/01 06:42:21;;;;;;;12.70;8.00;;;;;;;20.41;52.64;94670.34;5148712;27;20022;-81
2023/07/01 06:44:46;;;;;;;13.73;7.93;;;;;;;20.42;53.38;94666.28;5147724;27;20033;-81
2023/07/01 06:47:12;;;;;;;11.77;8.57;;;;;;;20.51;53.12;94661.72;5148603;27;20536;-81
2023/07/01 06:49:37;;;;;;;9.88;7.53;;;;;;;20.55;53.63;94656.66;5148613;27;20011;-81
2023/07/01 06:52:03;;;;;;;9.20;7.97;;;;;;;20.65;53.23;94667.03;5148666;27;20110;-81
2023/07/01 06:54:28;;;;;;;9.48;7.22;;;;;;;20.71;52.96;94660.69;5148185;27;20023;-81
2023/07/01 06:56:54;;;;;;;9.88;7.28;;;;;;;20.78;52.64;94660.16;5148907;27;20026;-81
2023/07/01 06:59:20;;;;;;;8.90;7.38;;;;;;;20.87;52.95;94651.50;5148489;27;20068;-81
2023/07/01 07:01:45;;;;;;;10.35;7.50;;;;;;;20.97;52.40;94654.78;5147552;27;20123;-82
2023/07/01 07:04:10;;;;;;;11.15;7.45;;;;;;;21.07;53.27;94656.78;5148242;27;20022;-82
2023/07/01 07:06:36;;;;;;;13.73;7.47;;;;;;;21.22;52.35;94656.50;5147092;27;20038;-80
2023/07/01 07:09:03;;;;;;;15.38;7.60;;;;;;;21.31;52.00;94653.44;5147478;27;20106;-82
2023/07/01 07:11:30;;;;;;;12.98;8.15;;;;;;;21.38;51.93;94644.50;5148450;27;20030;-81
2023/07/01 07:13:56;;;;;;;7.85;7.05;;;;;;;21.46;51.30;94645.50;5149943;27;20078;-81
2023/07/01 07:16:21;;;;;;;9.52;7.70;;;;;;;21.49;51.32;94640.88;5148503;27;20019;-81
2023/07/01 07:18:47;;;;;;;9.98;6.78;;;;;;;21.61;50.78;94630.41;5148525;27;20023;-81
2023/07/01 07:21:13;;;;;;;8.80;7.05;;;;;;;21.66;51.27;94633.16;5148493;27;20041;-81
2023/07/01 07:23:38;;;;;;;8.80;6.57;;;;;;;21.75;51.36;94634.91;5148429;27;20023;-80
2023/07/01 07:26:03;;;;;;;8.85;5.88;;;;;;;21.89;50.61;94641.44;5146795;27;20444;-82
2023/07/01 07:28:29;;;;;;;9.02;6.38;;;;;;;21.98;49.53;94625.09;5146899;27;20018;-81
2023/07/01 07:30:54;;;;;;;9.00;6.32;;;;;;;22.10;49.87;94631.41;5148199;27;20015;-80
2023/07/01 07:33:20;;;;;;;7.05;6.35;;;;;;;22.21;49.45;94630.56;5148010;27;20034;-81
2023/07/01 07:35:45;;;;;;;12.48;6.13;;;;;;;22.26;48.51;94618.56;5148153;27;20061;-82
2023/07/01 07:38:10;;;;;;;10.00;5.78;;;;;;;22.39;48.68;94624.28;5148259;27;20504;-81
2023/07/01 07:40:36;;;;;;;8.07;6.45;;;;;;;22.57;48.80;94627.69;5148326;27;20110;-84
2023/07/01 07:43:09;;;;;;;8.60;5.80;;;;;;;22.64;48.20;94627.88;5147984;27;20090;-81
2023/07/01 07:45:34;;;;;;;6.82;5.53;;;;;;;22.72;47.16;94617.63;5148366;27;20023;-83
2023/07/01 07:48:00;;;;;;;7.30;6.07;;;;;;;22.81;47.76;94616.50;5148168;27;20113;-82
2023/07/01 07:50:25;;;;;;;10.25;5.95;;;;;;;22.87;47.58;94610.84;5148328;27;20057;-81
2023/07/01 07:52:51;;;;;;;10.45;6.20;;;;;;;22.95;48.44;94612.56;5148259;27;20279;-82
2023/07/01 07:55:16;;;;;;;7.85;6.07;;;;;;;23.08;48.13;94616.75;5148397;27;20037;-80
2023/07/01 07:57:41;;;;;;;7.85;5.95;;;;;;;23.20;47.87;94620.94;5148249;27;20027;-80
2023/07/01 08:00:08;;;;;;;7.95;6.65;;;;;;;23.22;47.29;94618.38;5148058;27;20477;-83
2023/07/01 08:02:33;;;;;;;9.30;6.25;;;;;;;23.31;47.25;94612.41;5148714;27;20047;-81
2023/07/01 08:04:59;;;;;;;10.30;6.57;;;;;;;23.41;46.86;94612.81;5148556;27;20038;-83
2023/07/01 08:07:24;;;;;;;7.53;6.25;;;;;;;23.49;47.11;94606.03;5146958;27;20465;-82
2023/07/01 08:09:50;;;;;;;8.98;6.47;;;;;;;23.69;46.76;94609.66;5147900;27;20018;-84
2023/07/01 08:12:15;;;;;;;8.05;6.43;;;;;;;23.73;46.92;94605.22;5147245;27;20074;-81
2023/07/01 08:14:41;;;;;;;7.30;6.45;;;;;;;23.86;46.11;94610.16;5148118;27;20026;-81
2023/07/01 08:17:06;;;;;;;6.63;6.03;;;;;;;23.93;46.25;94603.94;5148872;27;20018;-81
2023/07/01 08:19:33;;;;;;;7.78;6.97;;;;;;;24.06;46.19;94595.56;5150466;27;20026;-81
2023/07/01 08:21:59;;;;;;;7.60;6.30;;;;;;;24.15;44.83;94590.84;5151961;27;20030;-83
2023/07/01 08:24:25;;;;;;;9.90;6.38;;;;;;;24.21;44.93;94594.31;5152594;27;20031;-81
2023/07/01 08:26:50;;;;;;;8.00;6.80;;;;;;;24.31;45.40;94598.22;5150120;27;20027;-83
2023/07/01 08:29:16;;;;;;;7.82;6.53;;;;;;;24.43;45.35;94596.00;5151584;27;20335;-83
2023/07/01 08:31:41;;;;;;;9.10;6.22;;;;;;;24.55;45.30;94591.75;5151512;27;20186;-84
2023/07/01 08:34:07;;;;;;;6.70;5.80;;;;;;;24.67;43.62;94590.25;5151335;27;20449;-82
2023/07/01 08:36:33;;;;;;;7.35;5.90;;;;;;;24.76;43.29;94591.84;5149639;27;20023;-81
2023/07/01 08:38:58;;;;;;;8.15;5.53;;;;;;;24.81;42.61;94594.56;5132823;27;20034;-81
2023/07/01 08:41:25;;;;;;;9.35;5.65;;;;;;;24.94;42.29;94590.25;5151623;27;20023;-81
2023/07/01 08:43:54;;;;;;;8.20;5.47;;;;;;;24.99;42.44;94587.31;5150234;27;20094;-81
2023/07/01 08:46:22;;;;;;;6.18;5.30;;;;;;;25.07;41.59;94590.28;5149911;27;20025;-82
2023/07/01 08:48:48;;;;;;;6.38;5.00;;;;;;;25.16;41.58;94582.16;5149730;27;20023;-82
2023/07/01 08:51:29;;;;;;;7.97;5.00;;;;;;;25.25;41.12;94589.41;5149940;27;20023;-82
2023/07/01 08:53:57;;;;;;;7.68;5.45;;;;;;;25.33;40.96;94581.81;5150689;27;20019;-81
2023/07/01 08:56:22;;;;;;;5.95;5.10;;;;;;;25.48;40.14;94578.44;5150574;27;20027;-83
2023/07/01 08:58:48;;;;;;;6.30;4.93;;;;;;;25.63;40.59;94581.44;5151446;27;20063;-82
2023/07/01 09:01:15;;;;;;;5.53;4.57;;;;;;;25.76;39.86;94577.09;5149412;27;20500;-83
2023/07/01 09:03:41;;;;;;;7.15;5.57;;;;;;;25.87;39.92;94576.84;5149174;27;20530;-82
2023/07/01 09:06:07;;;;;;;5.22;4.55;;;;;;;25.94;39.22;94571.28;5149301;27;20023;-82
2023/07/01 09:08:34;;;;;;;6.28;5.03;;;;;;;26.04;39.10;94565.19;5148861;27;20045;-81
2023/07/01 09:11:00;;;;;;;9.05;5.78;;;;;;;26.15;39.88;94567.72;5131866;27;20083;-83
2023/07/01 09:13:26;;;;;;;7.93;5.70;;;;;;;26.31;39.37;94563.75;5150255;27;20035;-82
2023/07/01 09:15:52;;;;;;;9.32;5.75;;;;;;;26.44;39.08;94552.44;5150588;27;20018;-82
2023/07/01 09:18:21;;;;;;;6.28;5.55;;;;;;;26.60;39.39;94550.47;5150497;27;20389;-82
2023/07/01 09:20:48;;;;;;;6.50;5.18;;;;;;;26.77;38.29;94541.56;5150684;27;20030;-83
2023/07/01 09:23:31;;;;;;;5.53;4.93;;;;;;;26.94;38.16;94543.94;5148991;27;20515;-83
2023/07/01 09:26:13;;;;;;;8.40;5.60;;;;;;;27.08;37.65;94542.56;5149263;27;20026;-83
2023/07/01 09:28:39;;;;;;;6.03;5.30;;;;;;;27.18;37.53;94540.72;5150359;27;20053;-82
2023/07/01 09:31:08;;;;;;;5.95;4.78;;;;;;;27.30;36.31;94538.34;5150529;27;20027;-81
2023/07/01 09:33:35;;;;;;;6.15;4.55;;;;;;;27.40;36.89;94530.06;5148844;27;20018;-82
2023/07/01 09:36:01;;;;;;;7.22;4.90;;;;;;;27.51;37.46;94526.91;5149068;27;20030;-83
2023/07/01 09:38:30;;;;;;;8.93;5.55;;;;;;;27.63;37.09;94527.34;5148774;27;20023;-83
2023/07/01 09:41:12;;;;;;;7.10;4.93;;;;;;;27.78;36.55;94519.69;5150059;27;20102;-81
2023/07/01 09:43:38;;;;;;;6.45;4.80;;;;;;;27.92;35.82;94520.28;5148480;27;20023;-82
2023/07/01 09:46:03;;;;;;;4.90;4.40;;;;;;;28.03;35.17;94516.34;5150151;27;20025;-83
2023/07/01 09:48:29;;;;;;;8.77;4.78;;;;;;;28.09;34.43;94516.91;5149874;27;20114;-82
2023/07/01 09:51:03;;;;;;;5.38;4.50;;;;;;;28.20;34.80;94524.25;5148622;27;20532;-82
2023/07/01 09:53:32;;;;;;;5.95;4.55;;;;;;;28.35;34.95;94510.19;5148068;27;20026;-82
2023/07/01 09:55:57;;;;;;;6.95;5.35;;;;;;;28.42;35.40;94512.25;5131462;27;20034;-83
2023/07/01 09:58:23;;;;;;;7.35;4.63;;;;;;;28.53;34.73;94502.63;5149348;27;20027;-81
2023/07/01 10:00:48;;;;;;;6.30;4.68;;;;;;;28.58;34.65;94499.59;5148534;27;20023;-81
2023/07/01 10:03:15;;;;;;;6.68;4.68;;;;;;;28.71;35.13;94495.06;5149530;27;20167;-82
2023/07/01 10:05:44;;;;;;;5.43;4.40;;;;;;;28.86;35.05;94488.63;5148079;27;20168;-82
2023/07/01 10:08:09;;;;;;;5.50;4.93;;;;;;;28.98;34.76;94489.75;5148455;27;20026;-82
2023/07/01 10:10:34;;;;;;;5.63;4.78;;;;;;;29.10;34.70;94491.59;5147750;27;20019;-84
2023/07/01 10:13:01;;;;;;;7.72;4.97;;;;;;;29.21;34.59;94481.94;5149445;27;20023;-83
2023/07/01 10:15:31;;;;;;;8.52;5.25;;;;;;;29.38;34.78;94481.31;5148351;27;20059;-82
2023/07/01 10:17:56;;;;;;;8.98;4.72;;;;;;;29.47;34.48;94480.69;5148079;27;20058;-83
2023/07/01 10:20:26;;;;;;;4.85;4.40;;;;;;;29.66;33.33;94477.41;5147546;27;20126;-83
2023/07/01 10:22:53;;;;;;;6.68;4.65;;;;;;;29.77;33.68;94481.88;5147653;27;20034;-83
2023/07/01 10:25:35;;;;;;;6.53;4.47;;;;;;;29.85;33.81;94474.81;5148254;27;20029;-83
2023/07/01 10:28:00;;;;;;;8.25;4.78;;;;;;;30.01;32.32;94471.91;5147799;27;20026;-82
2023/07/01 10:30:27;;;;;;;5.30;4.78;;;;;;;30.09;32.15;94455.59;5148767;27;20041;-81
2023/07/01 10:32:52;;;;;;;5.43;4.25;;;;;;;30.22;33.07;94468.72;5147543;27;20113;-83
2023/07/01 10:35:18;;;;;;;5.65;4.97;;;;;;;30.35;33.36;94459.94;5148886;27;20053;-83
2023/07/01 10:38:19;;;;;;;6.05;4.53;;;;;;;30.54;31.83;94459.38;5147651;27;20026;-83
2023/07/01 10:40:45;;;;;;;5.75;4.43;;;;;;;30.56;31.15;94451.03;5148070;27;20522;-83
2023/07/01 10:43:23;;;;;;;8.70;5.07;;;;;;;30.72;32.05;94454.50;5148674;27;20042;-83
2023/07/01 10:46:12;;;;;;;6.38;4.50;;;;;;;30.87;31.62;94457.19;5148031;27;20033;-83
2023/07/01 10:48:42;;;;;;;5.80;4.70;;;;;;;30.98;31.90;94444.59;5148306;27;20524;-81
2023/07/01 10:51:12;;;;;;;6.03;4.78;;;;;;;31.23;31.28;94458.66;5147737;27;20721;-83
2023/07/01 10:54:04;;;;;;;5.22;4.70;;;;;;;31.38;31.11;94447.91;5146331;27;20037;-83
2023/07/01 10:56:39;;;;;;;6.63;5.23;;;;;;;31.58;30.66;94454.44;5148629;27;20167;-83
2023/07/01 10:59:17;;;;;;;5.25;4.32;;;;;;;31.58;29.63;94445.19;5147011;27;20034;-82
2023/07/01 11:01:44;;;;;;;6.38;4.75;;;;;;;31.75;29.85;94441.53;5148143;27;20059;-82
2023/07/01 11:04:10;;;;;;;7.93;5.85;;;;;;;31.84;30.42;94438.03;5149191;27;20106;-82
2023/07/01 11:06:46;;;;;;;6.28;4.93;;;;;;;31.90;30.38;94441.34;5148409;27;20113;-83
2023/07/01 11:09:13;;;;;;;5.18;4.22;;;;;;;32.08;29.92;94437.06;5147223;27;20126;-82
2023/07/01 11:11:38;;;;;;;5.53;4.80;;;;;;;32.12;29.65;94439.50;5148109;27;20101;-83
2023/07/01 11:14:06;;;;;;;5.80;4.38;;;;;;;32.24;29.54;94431.91;5147040;27;20496;-83
2023/07/01 11:16:33;;;;;;;5.63;4.70;;;;;;;32.38;29.70;94429.41;5148144;27;20516;-81
2023/07/01 11:19:09;;;;;;;5.38;4.22;;;;;;;32.48;29.19;94430.19;5146968;27;20023;-81
2023/07/01 11:21:35;;;;;;;4.93;4.43;;;;;;;32.63;28.32;94429.91;5149933;27;20403;-83
2023/07/01 11:24:00;;;;;;;4.93;4.43;;;;;;;32.72;27.46;94439.78;5148561;27;20115;-84
2023/07/01 11:26:30;;;;;;;6.80;4.90;;;;;;;32.83;27.23;94429.94;5148459;27;20517;-82
2023/07/01 11:28:56;;;;;;;5.95;4.88;;;;;;;32.80;27.30;94429.00;5148793;27;20023;-82
2023/07/01 11:31:24;;;;;;;5.45;4.80;;;;;;;32.91;28.14;94422.00;5148901;27;20042;-83